createdAt,value
2018-06-07T00:00:26.548Z,99.90
2018-06-07T00:02:55.749Z,99.90
2018-06-07T00:07:53.896Z,99.90
2018-06-07T00:10:23.081Z,99.90
2018-06-07T00:12:52.268Z,99.90
2018-06-07T00:15:21.460Z,99.90
2018-06-07T00:17:50.652Z,99.90
2018-06-07T00:20:19.853Z,99.90
2018-06-07T00:22:49.035Z,99.90
2018-06-07T00:25:18.234Z,99.90
2018-06-07T00:27:47.416Z,99.90
2018-06-07T00:30:16.612Z,99.90
2018-06-07T00:32:45.795Z,99.90
2018-06-07T00:35:14.992Z,99.90
2018-06-07T00:37:44.167Z,99.90
2018-06-07T00:40:13.352Z,99.90
2018-06-07T00:42:42.533Z,99.90
2018-06-07T00:45:11.717Z,99.90
2018-06-07T00:47:40.901Z,99.90
2018-06-07T00:50:10.075Z,99.90
2018-06-07T00:52:39.229Z,99.90
2018-06-07T00:55:08.389Z,99.90
2018-06-07T01:00:06.500Z,99.90
2018-06-07T01:02:35.684Z,99.90
2018-06-07T01:05:05.383Z,99.90
2018-06-07T01:07:34.571Z,99.90
2018-06-07T01:12:32.723Z,99.90
2018-06-07T01:15:01.892Z,99.90
2018-06-07T01:17:31.101Z,99.90
2018-06-07T01:20:00.249Z,99.90
2018-06-07T01:22:29.428Z,99.90
2018-06-07T01:24:58.612Z,99.90
2018-06-07T01:27:33.043Z,99.90
2018-06-07T01:30:24.820Z,99.90
2018-06-07T01:33:27.385Z,99.90
2018-06-07T01:35:58.488Z,99.90
2018-06-07T01:38:44.868Z,99.90
2018-06-07T01:41:14.040Z,99.90
2018-06-07T01:43:43.249Z,99.90
2018-06-07T01:46:12.427Z,99.90
2018-06-07T01:48:41.616Z,99.90
2018-06-07T01:51:10.799Z,99.90
2018-06-07T01:53:39.984Z,99.90
2018-06-07T01:56:09.168Z,99.90
2018-06-07T01:58:38.350Z,99.90
2018-06-07T02:01:07.544Z,99.90
2018-06-07T02:03:37.271Z,99.90
2018-06-07T02:06:06.453Z,99.90
2018-06-07T02:08:35.625Z,99.90
2018-06-07T02:11:04.808Z,99.90
2018-06-07T02:13:33.979Z,99.90
2018-06-07T02:16:03.181Z,99.90
2018-06-07T02:18:32.360Z,99.90
2018-06-07T02:21:01.532Z,99.90
2018-06-07T02:23:30.712Z,99.90
2018-06-07T02:25:59.884Z,99.90
2018-06-07T02:28:29.068Z,99.90
2018-06-07T02:33:27.200Z,99.90
2018-06-07T02:35:56.380Z,99.90
2018-06-07T02:38:25.562Z,99.90
2018-06-07T02:40:54.832Z,99.90
2018-06-07T02:43:24.012Z,99.90
2018-06-07T02:45:53.196Z,99.90
2018-06-07T02:48:22.374Z,99.90
2018-06-07T02:50:51.551Z,99.90
2018-06-07T02:53:20.748Z,99.90
2018-06-07T02:55:49.916Z,99.90
2018-06-07T02:58:19.104Z,99.90
2018-06-07T03:00:48.249Z,99.90
2018-06-07T03:03:17.403Z,99.90
2018-06-07T03:05:46.562Z,99.90
2018-06-07T03:08:15.728Z,99.90
2018-06-07T03:13:13.840Z,99.90
2018-06-07T03:15:42.995Z,99.90
2018-06-07T03:18:12.145Z,99.90
2018-06-07T03:20:41.296Z,99.90
2018-06-07T03:23:10.525Z,99.90
2018-06-07T03:25:39.680Z,99.90
2018-06-07T03:28:08.844Z,99.90
2018-06-07T03:30:38.000Z,99.90
2018-06-07T03:33:07.165Z,99.90
2018-06-07T03:35:36.325Z,99.90
2018-06-07T03:38:05.508Z,99.90
2018-06-07T03:40:34.647Z,99.90
2018-06-07T03:43:03.804Z,99.90
2018-06-07T03:45:32.959Z,99.90
2018-06-07T03:50:31.045Z,99.90
2018-06-07T03:53:00.197Z,99.90
2018-06-07T03:55:29.347Z,99.90
2018-06-07T04:00:27.477Z,99.90
2018-06-07T04:02:56.644Z,99.90
2018-06-07T04:05:25.823Z,99.90
2018-06-07T04:07:55.008Z,99.90
2018-06-07T04:10:24.184Z,99.90
2018-06-07T04:12:53.369Z,99.90
2018-06-07T04:15:22.545Z,99.90
2018-06-07T04:17:51.727Z,99.90
2018-06-07T04:20:20.945Z,99.90
2018-06-07T04:22:50.127Z,99.90
2018-06-07T04:25:19.309Z,99.90
2018-06-07T04:27:49.396Z,99.90
2018-06-07T04:30:18.577Z,99.90
2018-06-07T04:32:47.757Z,99.90
2018-06-07T04:35:16.935Z,99.90
2018-06-07T04:37:46.159Z,99.90
2018-06-07T04:40:15.336Z,99.90
2018-06-07T04:42:44.523Z,99.90
2018-06-07T04:45:13.704Z,99.90
2018-06-07T04:47:42.888Z,99.90
2018-06-07T04:50:12.065Z,99.90
2018-06-07T04:52:41.249Z,99.90
2018-06-07T04:55:10.425Z,99.90
2018-06-07T04:57:39.613Z,99.90
2018-06-07T05:00:08.797Z,99.90
2018-06-07T05:02:37.976Z,99.90
2018-06-07T05:05:07.165Z,99.90
2018-06-07T05:07:36.344Z,99.90
2018-06-07T05:10:05.625Z,99.90
2018-06-07T05:12:34.795Z,99.90
2018-06-07T05:15:03.989Z,99.90
2018-06-07T05:17:33.161Z,99.90
2018-06-07T05:20:02.340Z,99.90
2018-06-07T05:22:31.533Z,99.90
2018-06-07T05:25:01.585Z,99.90
2018-06-07T05:27:31.025Z,99.90
2018-06-07T05:30:01.085Z,99.90
2018-06-07T05:32:30.661Z,99.90
2018-06-07T05:37:29.344Z,99.90
2018-06-07T05:39:58.908Z,99.90
2018-06-07T05:42:28.226Z,99.90
2018-06-07T05:47:26.627Z,99.90
2018-06-07T05:49:56.007Z,99.90
2018-06-07T05:52:25.544Z,99.90
2018-06-07T05:54:54.945Z,99.90
2018-06-07T05:57:24.358Z,99.90
2018-06-07T05:59:53.799Z,99.90
2018-06-07T06:02:23.290Z,99.90
2018-06-07T06:04:52.695Z,99.90
2018-06-07T06:07:22.279Z,99.90
2018-06-07T06:09:51.716Z,99.90
2018-06-07T06:12:21.049Z,99.90
2018-06-07T06:14:50.245Z,99.90
2018-06-07T06:17:19.631Z,99.90
2018-06-07T06:19:49.060Z,99.90
2018-06-07T06:22:18.476Z,99.90
2018-06-07T06:24:47.925Z,99.90
2018-06-07T06:27:17.198Z,99.90
2018-06-07T06:29:46.458Z,99.90
2018-06-07T06:32:15.760Z,99.90
2018-06-07T06:39:43.310Z,99.90
2018-06-07T06:42:12.506Z,99.90
2018-06-07T06:44:41.693Z,99.90
2018-06-07T06:47:10.914Z,99.90
2018-06-07T06:49:40.144Z,99.90
2018-06-07T06:52:09.470Z,99.90
2018-06-07T06:54:38.756Z,99.90
2018-06-07T06:57:08.137Z,99.90
2018-06-07T06:59:37.419Z,99.90
2018-06-07T07:02:06.752Z,99.90
2018-06-07T07:07:05.097Z,99.90
2018-06-07T07:09:34.464Z,99.90
2018-06-07T07:12:03.695Z,99.90
2018-06-07T07:14:32.895Z,99.90
2018-06-07T07:17:02.163Z,99.90
2018-06-07T07:19:31.375Z,99.90
2018-06-07T07:22:00.634Z,99.90
2018-06-07T07:26:58.859Z,99.90
2018-06-07T07:29:28.263Z,99.90
2018-06-07T07:31:57.525Z,99.90
2018-06-07T07:34:26.884Z,99.90
2018-06-07T07:36:56.186Z,99.90
2018-06-07T07:39:25.456Z,99.90
2018-06-07T07:41:54.667Z,99.90
2018-06-07T07:44:23.854Z,99.90
2018-06-07T07:46:53.087Z,99.90
2018-06-07T07:49:22.306Z,99.90
2018-06-07T07:51:51.600Z,99.90
2018-06-07T07:54:20.950Z,99.90
2018-06-07T07:56:50.202Z,99.90
2018-06-07T07:59:19.504Z,99.90
2018-06-07T08:01:48.817Z,99.90
2018-06-07T08:04:18.091Z,99.90
2018-06-07T08:06:47.479Z,99.90
2018-06-07T08:09:16.729Z,99.90
2018-06-07T08:11:45.946Z,99.90
2018-06-07T08:14:15.162Z,99.90
2018-06-07T08:16:44.362Z,99.90
2018-06-07T08:19:13.585Z,99.90
2018-06-07T08:21:42.834Z,99.90
2018-06-07T08:24:12.082Z,99.90
2018-06-07T08:26:41.277Z,99.90
2018-06-07T08:29:10.541Z,99.90
2018-06-07T08:31:39.772Z,99.90
2018-06-07T08:34:08.970Z,99.90
2018-06-07T08:36:38.252Z,99.90
2018-06-07T08:39:08.852Z,99.90
2018-06-07T08:41:38.050Z,99.90
2018-06-07T08:44:07.246Z,99.90
2018-06-07T08:46:36.454Z,99.90
2018-06-07T08:49:05.728Z,99.90
2018-06-07T08:54:04.017Z,99.90
2018-06-07T08:59:02.399Z,99.90
2018-06-07T09:01:31.583Z,99.90
2018-06-07T09:04:00.843Z,99.90
2018-06-07T09:06:30.104Z,99.90
2018-06-07T09:08:59.380Z,99.90
2018-06-07T09:11:28.770Z,99.90
2018-06-07T09:13:58.040Z,99.90
2018-06-07T09:16:27.279Z,99.90
2018-06-07T09:18:56.555Z,99.90
2018-06-07T09:21:25.844Z,99.90
2018-06-07T09:23:55.077Z,99.90
2018-06-07T09:26:24.366Z,99.90
2018-06-07T09:28:53.652Z,99.90
2018-06-07T09:31:22.887Z,99.90
2018-06-07T09:33:52.195Z,99.90
2018-06-07T09:36:21.483Z,99.90
2018-06-07T09:38:50.731Z,99.90
2018-06-07T09:41:19.976Z,99.90
2018-06-07T09:43:49.192Z,99.90
2018-06-07T09:48:47.526Z,99.90
2018-06-07T09:51:16.817Z,99.90
2018-06-07T09:53:46.073Z,99.90
2018-06-07T09:56:15.327Z,99.90
2018-06-07T09:58:44.562Z,99.90
2018-06-07T10:01:13.797Z,99.90
2018-06-07T10:03:43.019Z,99.90
2018-06-07T10:06:12.297Z,99.90
2018-06-07T10:08:41.522Z,99.90
2018-06-07T10:11:10.725Z,99.90
2018-06-07T10:13:40.007Z,99.90
2018-06-07T10:16:09.260Z,99.90
2018-06-07T10:18:38.429Z,99.90
2018-06-07T10:21:07.691Z,99.90
2018-06-07T10:23:36.916Z,99.90
2018-06-07T10:26:06.165Z,99.90
2018-06-07T10:31:04.410Z,99.70
2018-06-07T10:33:33.650Z,99.90
2018-06-07T10:36:02.886Z,99.70
2018-06-07T10:38:32.146Z,99.70
2018-06-07T10:43:30.419Z,99.70
2018-06-07T10:45:59.607Z,99.90
2018-06-07T10:48:28.857Z,99.90
2018-06-07T10:50:58.072Z,99.20
2018-06-07T10:53:27.324Z,99.20
2018-06-07T10:55:56.608Z,99.40
2018-06-07T10:58:25.843Z,98.40
2018-06-07T11:00:55.145Z,99.10
2018-06-07T11:03:24.401Z,99.60
2018-06-07T11:05:53.671Z,99.60
2018-06-07T11:08:22.992Z,99.40
2018-06-07T11:10:52.566Z,99.90
2018-06-07T11:13:21.847Z,99.90
2018-06-07T11:15:51.208Z,99.60
2018-06-07T11:18:20.529Z,98.80
2018-06-07T11:23:18.837Z,98.50
2018-06-07T11:25:48.137Z,98.60
2018-06-07T11:28:17.437Z,98.70
2018-06-07T11:30:46.851Z,98.50
2018-06-07T11:33:16.202Z,98.50
2018-06-07T11:35:45.582Z,99.10
2018-06-07T11:38:14.939Z,98.70
2018-06-07T11:43:13.276Z,99.60
2018-06-07T11:45:42.507Z,99.90
2018-06-07T11:48:11.763Z,99.90
2018-06-07T11:50:41.128Z,99.90
2018-06-07T11:53:10.435Z,99.90
2018-06-07T11:55:39.731Z,99.90
2018-06-07T11:58:09.061Z,99.80
2018-06-07T12:00:38.305Z,99.60
2018-06-07T12:03:07.701Z,99.20
2018-06-07T12:05:37.033Z,99.10
2018-06-07T12:13:04.626Z,99.60
2018-06-07T12:15:33.944Z,97.30
2018-06-07T12:18:03.230Z,97.50
2018-06-07T12:23:01.693Z,96.20
2018-06-07T12:25:31.064Z,95.70
2018-06-07T12:28:00.412Z,96.10
2018-06-07T12:32:58.841Z,96.20
2018-06-07T12:35:28.211Z,95.30
2018-06-07T12:37:57.558Z,94.00
2018-06-07T12:40:26.883Z,94.10
2018-06-07T12:42:56.102Z,94.00
2018-06-07T12:45:25.295Z,94.50
2018-06-07T12:47:54.554Z,94.00
2018-06-07T12:50:23.824Z,95.10
2018-06-07T12:52:53.100Z,95.90
2018-06-07T12:55:22.457Z,96.20
2018-06-07T12:57:51.782Z,97.50
2018-06-07T13:00:21.138Z,98.30
2018-06-07T13:02:50.414Z,98.10
2018-06-07T13:07:48.978Z,98.10
2018-06-07T13:10:18.389Z,98.30
2018-06-07T13:12:47.727Z,98.50
2018-06-07T13:17:46.211Z,99.20
2018-06-07T13:20:15.615Z,98.80
2018-06-07T13:22:45.050Z,99.90
2018-06-07T13:25:14.476Z,99.50
2018-06-07T13:27:43.898Z,99.00
2018-06-07T13:30:13.344Z,98.90
2018-06-07T13:32:42.740Z,98.00
2018-06-07T13:37:41.282Z,97.70
2018-06-07T13:40:10.828Z,98.20
2018-06-07T13:42:40.237Z,97.70
2018-06-07T13:47:38.718Z,94.60
2018-06-07T13:50:08.160Z,94.80
2018-06-07T13:52:37.599Z,96.00
2018-06-07T13:55:07.146Z,96.60
2018-06-07T14:00:05.606Z,97.80
2018-06-07T14:02:35.021Z,97.50
2018-06-07T14:05:04.330Z,97.20
2018-06-07T14:07:33.566Z,96.90
2018-06-07T14:10:02.919Z,97.40
2018-06-07T14:12:32.261Z,98.20
2018-06-07T14:15:01.542Z,98.30
2018-06-07T14:19:59.801Z,99.90
2018-06-07T14:22:29.063Z,99.80
2018-06-07T14:24:58.307Z,99.90
2018-06-07T14:27:27.565Z,99.90
2018-06-07T14:29:56.848Z,99.90
2018-06-07T14:32:26.146Z,99.90
2018-06-07T14:34:55.362Z,99.90
2018-06-07T14:37:24.586Z,99.90
2018-06-07T14:39:53.802Z,99.90
2018-06-07T14:42:23.042Z,99.90
2018-06-07T14:44:52.200Z,99.90
2018-06-07T14:47:21.403Z,99.90
2018-06-07T14:49:50.808Z,99.90
2018-06-07T14:54:49.597Z,99.90
2018-06-07T14:57:19.012Z,99.90
2018-06-07T14:59:48.311Z,99.90
2018-06-07T15:02:17.545Z,99.90
2018-06-07T15:04:46.765Z,99.90
2018-06-07T15:07:16.061Z,99.90
2018-06-07T15:09:45.342Z,99.90
2018-06-07T15:12:14.749Z,99.90
2018-06-07T15:14:44.039Z,99.90
2018-06-07T15:17:13.360Z,99.90
2018-06-07T15:19:42.627Z,99.90
2018-06-07T15:24:40.985Z,99.90
2018-06-07T15:27:10.282Z,99.90
2018-06-07T15:29:39.458Z,99.90
2018-06-07T15:32:08.652Z,99.90
2018-06-07T15:34:37.834Z,99.90
2018-06-07T15:37:07.017Z,99.90
2018-06-07T15:39:36.221Z,99.90
2018-06-07T15:42:05.402Z,99.90
2018-06-07T15:47:03.544Z,99.90
2018-06-07T15:49:32.726Z,99.90
2018-06-07T15:52:01.911Z,99.90
2018-06-07T15:54:31.098Z,99.90
2018-06-07T15:57:00.304Z,99.90
2018-06-07T15:59:29.484Z,99.90
2018-06-07T16:01:58.728Z,99.90
2018-06-07T16:04:27.912Z,99.90
2018-06-07T16:06:57.100Z,99.90
2018-06-07T16:09:26.275Z,99.90
2018-06-07T16:11:55.484Z,99.90
2018-06-07T16:16:53.709Z,99.90
2018-06-07T16:19:22.893Z,99.90
2018-06-07T16:21:52.089Z,99.90
2018-06-07T16:24:21.289Z,99.90
2018-06-07T16:26:50.471Z,99.90
2018-06-07T16:29:19.659Z,99.90
2018-06-07T16:31:48.847Z,99.90
2018-06-07T16:34:18.051Z,99.90
2018-06-07T16:36:47.245Z,99.90
2018-06-07T16:41:45.381Z,99.90
2018-06-07T16:44:14.571Z,99.90
2018-06-07T16:46:43.752Z,99.90
2018-06-07T16:49:13.138Z,99.90
2018-06-07T16:51:42.311Z,99.90
2018-06-07T16:56:40.456Z,99.90
2018-06-07T16:59:09.644Z,99.90
2018-06-07T17:01:38.816Z,99.90
2018-06-07T17:04:08.003Z,99.90
2018-06-07T17:06:37.183Z,99.90
2018-06-07T17:09:09.446Z,99.90
2018-06-07T17:11:38.584Z,99.90
2018-06-07T17:14:07.764Z,99.90
2018-06-07T17:16:36.944Z,99.90
2018-06-07T17:19:06.144Z,99.90
2018-06-07T17:21:35.341Z,99.90
2018-06-07T17:26:33.540Z,99.90
2018-06-07T17:31:31.712Z,99.90
2018-06-07T17:34:00.921Z,99.90
2018-06-07T17:38:59.068Z,99.90
2018-06-07T17:41:28.286Z,99.90
2018-06-07T17:43:57.479Z,99.90
2018-06-07T17:46:26.685Z,99.90
2018-06-07T17:48:55.877Z,99.90
2018-06-07T17:51:25.070Z,99.90
2018-06-07T17:53:54.250Z,99.90
2018-06-07T17:56:23.437Z,99.90
2018-06-07T17:58:53.319Z,99.90
2018-06-07T18:01:22.697Z,99.90
2018-06-07T18:03:52.730Z,99.90
2018-06-07T18:06:22.217Z,99.90
2018-06-07T18:08:51.372Z,99.90
2018-06-07T18:11:20.535Z,99.90
2018-06-07T18:13:49.713Z,99.90
2018-06-07T18:16:19.093Z,99.90
2018-06-07T18:18:48.368Z,99.90
2018-06-07T18:21:17.621Z,99.90
2018-06-07T18:23:46.977Z,99.90
2018-06-07T18:26:16.258Z,99.90
2018-06-07T18:28:45.447Z,99.90
2018-06-07T18:31:14.612Z,99.90
2018-06-07T18:36:12.857Z,99.90
2018-06-07T18:38:42.044Z,99.90
2018-06-07T18:41:11.308Z,99.90
2018-06-07T18:43:40.493Z,99.90
2018-06-07T18:46:09.662Z,99.90
2018-06-07T18:48:38.829Z,99.90
2018-06-07T18:51:08.139Z,99.90
2018-06-07T18:53:37.383Z,99.90
2018-06-07T18:58:35.626Z,99.90
2018-06-07T19:01:04.808Z,99.90
2018-06-07T19:03:34.026Z,99.90
2018-06-07T19:06:03.288Z,99.90
2018-06-07T19:11:06.962Z,99.90
2018-06-07T19:13:41.295Z,99.90
2018-06-07T19:16:10.485Z,99.90
2018-06-07T19:18:39.704Z,99.90
2018-06-07T19:21:09.016Z,99.90
2018-06-07T19:23:38.256Z,99.90
2018-06-07T19:26:12.683Z,99.90
2018-06-07T19:28:42.015Z,99.90
2018-06-07T19:31:11.200Z,99.90
2018-06-07T19:33:45.733Z,99.90
2018-06-07T19:36:15.035Z,99.90
2018-06-07T19:38:49.420Z,99.90
2018-06-07T19:41:24.129Z,99.90
2018-06-07T19:43:53.431Z,99.90
2018-06-07T19:46:22.612Z,99.90
2018-06-07T19:48:51.804Z,99.90
2018-06-07T19:51:20.997Z,99.90
2018-06-07T19:56:19.140Z,99.90
2018-06-07T19:58:48.316Z,99.90
2018-06-07T20:01:17.485Z,99.90
2018-06-07T20:06:15.580Z,99.90
2018-06-07T20:08:44.766Z,99.90
2018-06-07T20:11:13.900Z,99.90
2018-06-07T20:13:43.125Z,99.90
2018-06-07T20:16:12.334Z,99.90
2018-06-07T20:18:41.522Z,99.90
2018-06-07T20:21:11.377Z,99.90
2018-06-07T20:23:40.585Z,99.90
2018-06-07T20:26:09.852Z,99.90
2018-06-07T20:31:08.044Z,99.90
2018-06-07T20:36:06.228Z,99.90
2018-06-07T20:41:04.578Z,99.90
2018-06-07T20:43:33.764Z,99.90
2018-06-07T20:46:02.934Z,99.90
2018-06-07T20:48:32.101Z,99.90
2018-06-07T20:51:01.378Z,99.90
2018-06-07T20:53:30.565Z,99.90
2018-06-07T20:55:59.745Z,99.90
2018-06-07T20:58:28.916Z,99.90
2018-06-07T21:00:58.077Z,99.90
2018-06-07T21:03:27.248Z,99.90
2018-06-07T21:05:56.448Z,99.90
2018-06-07T21:08:25.613Z,99.90
2018-06-07T21:10:54.803Z,99.90
2018-06-07T21:15:52.968Z,99.90
2018-06-07T21:18:22.155Z,99.90
2018-06-07T21:20:51.309Z,99.90
2018-06-07T21:23:20.596Z,99.90
2018-06-07T21:25:49.760Z,99.90
2018-06-07T21:28:18.937Z,99.90
2018-06-07T21:30:48.213Z,99.90
2018-06-07T21:33:17.429Z,99.90
2018-06-07T21:35:46.592Z,99.90
2018-06-07T21:38:15.812Z,99.90
2018-06-07T21:40:45.078Z,99.90
2018-06-07T21:43:14.439Z,99.90
2018-06-07T21:45:43.608Z,99.90
2018-06-07T21:48:12.757Z,99.90
2018-06-07T21:50:41.925Z,99.90
2018-06-07T21:53:11.092Z,99.90
2018-06-07T21:55:40.276Z,99.90
2018-06-07T21:58:09.441Z,99.90
2018-06-07T22:00:38.621Z,99.90
2018-06-07T22:03:07.781Z,99.90
2018-06-07T22:05:36.951Z,99.90
2018-06-07T22:08:06.285Z,99.90
2018-06-07T22:10:35.571Z,99.90
2018-06-07T22:13:04.760Z,99.90
2018-06-07T22:15:33.953Z,99.90
2018-06-07T22:18:03.141Z,99.90
2018-06-07T22:20:32.330Z,99.90
2018-06-07T22:25:30.477Z,99.90
2018-06-07T22:27:59.663Z,99.90
2018-06-07T22:30:28.855Z,99.90
2018-06-07T22:32:58.057Z,99.90
2018-06-07T22:35:27.295Z,99.90
2018-06-07T22:37:56.497Z,99.90
2018-06-07T22:40:25.677Z,99.90
2018-06-07T22:42:54.871Z,99.90
2018-06-07T22:45:24.061Z,99.90
2018-06-07T22:47:53.252Z,99.90
2018-06-07T22:50:22.440Z,99.90
2018-06-07T22:52:51.627Z,99.90
2018-06-07T22:55:20.817Z,99.90
2018-06-07T22:57:50.014Z,99.90
2018-06-07T23:00:19.181Z,99.90
2018-06-07T23:02:52.152Z,99.90
2018-06-07T23:05:21.316Z,99.90
2018-06-07T23:07:50.490Z,99.90
2018-06-07T23:10:19.652Z,99.90
2018-06-07T23:12:48.828Z,99.90
2018-06-07T23:15:17.997Z,99.90
2018-06-07T23:17:47.214Z,99.90
2018-06-07T23:20:16.352Z,99.90
2018-06-07T23:22:45.509Z,99.90
2018-06-07T23:25:14.680Z,99.90
2018-06-07T23:27:43.841Z,99.90
2018-06-07T23:32:41.942Z,99.90
2018-06-07T23:35:11.108Z,99.90
2018-06-07T23:37:40.278Z,99.90
2018-06-07T23:40:09.479Z,99.90
2018-06-07T23:42:38.633Z,99.90
2018-06-07T23:45:07.799Z,99.90
2018-06-07T23:47:36.956Z,99.90
2018-06-07T23:50:06.121Z,99.90
2018-06-07T23:52:35.284Z,99.90
2018-06-07T23:55:04.451Z,99.90
2018-06-07T23:57:33.617Z,99.90
